KSUN/SUN METAR and TAF weather

Enter ICAO airport designator
Station Type Date Time Source
KSUN METAR 2020/07/15 06:55 UTC NOAA

KSUN 150655Z AUTO 30007KT 10SM CLR 13/03 A3014 RMK AO2


Station Type Date Time Source
KSUN Decoded METAR 2020/07/15 06:55 UTC NOAA

Hailey, Friedman Memorial Airport, ID, United States (KSUN) 43-30N 114-18W
Jul 15, 2020 - 02:55 AM EDT / 2020.07.15 0655 UTC
Wind: from the WNW (300 degrees) at 8 MPH (7 KT):0
Visibility: 10 mile(s):0
Sky conditions: clear
Temperature: 55 F (13 C)
Dew Point: 37 F (3 C)
Relative Humidity: 50%
Pressure (altimeter): 30.14 in. Hg (1020 hPa)
ob: KSUN 150655Z AUTO 30007KT 10SM CLR 13/03 A3014 RMK AO2
cycle: 7

Station Type Date Time Source
KSUN TAF 2020/07/15 06:22 UTC NOAA

TAF KSUN 150520Z 1506/1612 32008KT P6SM SKC
FM151800 14008KT P6SM SKC
FM152300 21010KT P6SM SKC
FM160300 31010KT P6SM SKC
AMD LTD TO CLD VIS AND WIND TIL 151300

Example: see airport list